sensor_id;sensor_type;location;lat;lon;timestamp;P1;durP1;ratioP1;P2;durP2;ratioP2
994;SDS011;486;48.726;8.964;2022-10-23T00:01:57;8.27;;;7.03;;
994;SDS011;486;48.726;8.964;2022-10-23T00:04:26;8.73;;;6.70;;
994;SDS011;486;48.726;8.964;2022-10-23T00:06:55;7.50;;;6.70;;
994;SDS011;486;48.726;8.964;2022-10-23T00:09:24;9.30;;;6.57;;
994;SDS011;486;48.726;8.964;2022-10-23T00:11:53;7.90;;;6.60;;
994;SDS011;486;48.726;8.964;2022-10-23T00:14:23;7.03;;;6.23;;
994;SDS011;486;48.726;8.964;2022-10-23T00:16:55;6.70;;;5.60;;
994;SDS011;486;48.726;8.964;2022-10-23T00:19:24;7.63;;;7.00;;
994;SDS011;486;48.726;8.964;2022-10-23T00:21:53;10.40;;;7.00;;
994;SDS011;486;48.726;8.964;2022-10-23T00:24:22;6.80;;;6.20;;
994;SDS011;486;48.726;8.964;2022-10-23T00:26:51;7.13;;;6.40;;
994;SDS011;486;48.726;8.964;2022-10-23T00:29:20;7.37;;;6.30;;
994;SDS011;486;48.726;8.964;2022-10-23T00:31:49;7.03;;;6.33;;
994;SDS011;486;48.726;8.964;2022-10-23T00:34:21;7.10;;;6.17;;
994;SDS011;486;48.726;8.964;2022-10-23T00:36:50;10.20;;;8.33;;
994;SDS011;486;48.726;8.964;2022-10-23T00:39:19;9.53;;;6.17;;
994;SDS011;486;48.726;8.964;2022-10-23T00:41:48;10.63;;;6.67;;
994;SDS011;486;48.726;8.964;2022-10-23T00:47:31;6.97;;;6.37;;
994;SDS011;486;48.726;8.964;2022-10-23T00:50:03;8.57;;;6.80;;
994;SDS011;486;48.726;8.964;2022-10-23T00:52:33;6.80;;;6.20;;
994;SDS011;486;48.726;8.964;2022-10-23T00:55:09;7.23;;;6.10;;
994;SDS011;486;48.726;8.964;2022-10-23T00:57:40;6.97;;;6.37;;
994;SDS011;486;48.726;8.964;2022-10-23T01:00:13;6.93;;;6.17;;
994;SDS011;486;48.726;8.964;2022-10-23T01:02:57;7.03;;;6.53;;
994;SDS011;486;48.726;8.964;2022-10-23T01:05:32;7.40;;;6.70;;
994;SDS011;486;48.726;8.964;2022-10-23T01:08:11;7.23;;;6.20;;
994;SDS011;486;48.726;8.964;2022-10-23T01:10:51;6.80;;;6.20;;
994;SDS011;486;48.726;8.964;2022-10-23T01:13:30;8.53;;;6.30;;
994;SDS011;486;48.726;8.964;2022-10-23T01:16:09;10.47;;;5.80;;
994;SDS011;486;48.726;8.964;2022-10-23T01:18:45;9.80;;;6.87;;
994;SDS011;486;48.726;8.964;2022-10-23T01:21:25;7.10;;;6.50;;
994;SDS011;486;48.726;8.964;2022-10-23T01:24:06;6.10;;;5.60;;
994;SDS011;486;48.726;8.964;2022-10-23T01:26:54;8.30;;;5.37;;
994;SDS011;486;48.726;8.964;2022-10-23T01:29:45;7.40;;;6.70;;
994;SDS011;486;48.726;8.964;2022-10-23T01:32:34;8.53;;;6.57;;
994;SDS011;486;48.726;8.964;2022-10-23T01:35:13;7.43;;;5.90;;
994;SDS011;486;48.726;8.964;2022-10-23T01:37:57;5.60;;;5.10;;
994;SDS011;486;48.726;8.964;2022-10-23T01:40:37;6.90;;;5.40;;
994;SDS011;486;48.726;8.964;2022-10-23T01:43:18;6.27;;;5.70;;
994;SDS011;486;48.726;8.964;2022-10-23T01:45:53;6.17;;;5.40;;
994;SDS011;486;48.726;8.964;2022-10-23T01:48:28;6.00;;;5.40;;
994;SDS011;486;48.726;8.964;2022-10-23T01:50:59;6.60;;;6.00;;
994;SDS011;486;48.726;8.964;2022-10-23T01:53:33;5.13;;;4.60;;
994;SDS011;486;48.726;8.964;2022-10-23T01:56:09;6.00;;;5.40;;
994;SDS011;486;48.726;8.964;2022-10-23T01:58:45;6.53;;;5.93;;
994;SDS011;486;48.726;8.964;2022-10-23T02:01:18;6.67;;;5.30;;
994;SDS011;486;48.726;8.964;2022-10-23T02:03:51;6.63;;;5.93;;
994;SDS011;486;48.726;8.964;2022-10-23T02:06:24;5.67;;;5.27;;
994;SDS011;486;48.726;8.964;2022-10-23T02:10:22;5.97;;;5.47;;
994;SDS011;486;48.726;8.964;2022-10-23T02:12:59;6.87;;;5.90;;
994;SDS011;486;48.726;8.964;2022-10-23T02:15:37;6.67;;;5.43;;
994;SDS011;486;48.726;8.964;2022-10-23T02:18:17;6.30;;;5.20;;
994;SDS011;486;48.726;8.964;2022-10-23T02:21:03;5.73;;;5.23;;
994;SDS011;486;48.726;8.964;2022-10-23T02:23:37;5.63;;;5.23;;
994;SDS011;486;48.726;8.964;2022-10-23T02:26:14;5.70;;;5.30;;
994;SDS011;486;48.726;8.964;2022-10-23T02:28:49;6.73;;;5.53;;
994;SDS011;486;48.726;8.964;2022-10-23T02:31:27;5.50;;;5.00;;
994;SDS011;486;48.726;8.964;2022-10-23T02:33:56;6.30;;;5.70;;
994;SDS011;486;48.726;8.964;2022-10-23T02:36:25;6.60;;;5.30;;
994;SDS011;486;48.726;8.964;2022-10-23T02:38:54;6.43;;;5.70;;
994;SDS011;486;48.726;8.964;2022-10-23T02:41:24;5.77;;;5.10;;
994;SDS011;486;48.726;8.964;2022-10-23T02:44:10;5.90;;;5.27;;
994;SDS011;486;48.726;8.964;2022-10-23T02:46:55;5.80;;;5.30;;
994;SDS011;486;48.726;8.964;2022-10-23T02:49:37;5.73;;;5.23;;
994;SDS011;486;48.726;8.964;2022-10-23T02:52:15;5.50;;;5.00;;
994;SDS011;486;48.726;8.964;2022-10-23T02:57:48;6.37;;;5.77;;
994;SDS011;486;48.726;8.964;2022-10-23T03:00:22;6.07;;;5.40;;
994;SDS011;486;48.726;8.964;2022-10-23T03:02:56;5.63;;;5.23;;
994;SDS011;486;48.726;8.964;2022-10-23T03:05:30;6.63;;;6.00;;
994;SDS011;486;48.726;8.964;2022-10-23T03:08:03;5.10;;;4.70;;
994;SDS011;486;48.726;8.964;2022-10-23T03:10:36;7.30;;;5.60;;
994;SDS011;486;48.726;8.964;2022-10-23T03:13:06;6.60;;;6.00;;
994;SDS011;486;48.726;8.964;2022-10-23T03:15:40;8.73;;;5.73;;
994;SDS011;486;48.726;8.964;2022-10-23T03:18:15;7.87;;;6.27;;
994;SDS011;486;48.726;8.964;2022-10-23T03:20:47;5.93;;;5.33;;
994;SDS011;486;48.726;8.964;2022-10-23T03:23:19;7.03;;;6.23;;
994;SDS011;486;48.726;8.964;2022-10-23T03:25:48;8.03;;;6.90;;
994;SDS011;486;48.726;8.964;2022-10-23T03:28:33;6.07;;;5.57;;
994;SDS011;486;48.726;8.964;2022-10-23T03:31:02;6.67;;;6.07;;
994;SDS011;486;48.726;8.964;2022-10-23T03:33:34;9.40;;;6.37;;
994;SDS011;486;48.726;8.964;2022-10-23T03:36:07;6.80;;;6.20;;
994;SDS011;486;48.726;8.964;2022-10-23T03:38:37;6.03;;;5.53;;
994;SDS011;486;48.726;8.964;2022-10-23T03:41:08;6.87;;;6.17;;
994;SDS011;486;48.726;8.964;2022-10-23T03:43:37;6.43;;;5.93;;
994;SDS011;486;48.726;8.964;2022-10-23T03:46:06;6.67;;;6.07;;
994;SDS011;486;48.726;8.964;2022-10-23T03:48:39;6.93;;;6.33;;
994;SDS011;486;48.726;8.964;2022-10-23T03:51:09;7.03;;;6.47;;
994;SDS011;486;48.726;8.964;2022-10-23T03:53:39;8.83;;;6.10;;
994;SDS011;486;48.726;8.964;2022-10-23T03:56:08;8.10;;;6.10;;
994;SDS011;486;48.726;8.964;2022-10-23T03:58:38;7.57;;;6.87;;
994;SDS011;486;48.726;8.964;2022-10-23T04:01:07;7.43;;;5.93;;
994;SDS011;486;48.726;8.964;2022-10-23T04:03:36;6.80;;;6.10;;
994;SDS011;486;48.726;8.964;2022-10-23T04:06:08;7.10;;;6.40;;
994;SDS011;486;48.726;8.964;2022-10-23T04:08:37;5.60;;;5.10;;
994;SDS011;486;48.726;8.964;2022-10-23T04:11:12;6.40;;;5.80;;
994;SDS011;486;48.726;8.964;2022-10-23T04:13:44;6.53;;;6.03;;
994;SDS011;486;48.726;8.964;2022-10-23T04:16:13;7.57;;;6.53;;
994;SDS011;486;48.726;8.964;2022-10-23T04:18:45;7.40;;;6.70;;
994;SDS011;486;48.726;8.964;2022-10-23T04:21:14;8.73;;;5.90;;
994;SDS011;486;48.726;8.964;2022-10-23T04:23:44;6.07;;;5.53;;
994;SDS011;486;48.726;8.964;2022-10-23T04:26:15;6.83;;;6.20;;
994;SDS011;486;48.726;8.964;2022-10-23T04:28:44;7.20;;;6.50;;
994;SDS011;486;48.726;8.964;2022-10-23T04:31:14;6.37;;;5.70;;
994;SDS011;486;48.726;8.964;2022-10-23T04:33:46;8.70;;;7.50;;
994;SDS011;486;48.726;8.964;2022-10-23T04:36:27;6.97;;;6.27;;
994;SDS011;486;48.726;8.964;2022-10-23T04:39:08;7.93;;;7.23;;
994;SDS011;486;48.726;8.964;2022-10-23T04:41:37;10.07;;;5.77;;
994;SDS011;486;48.726;8.964;2022-10-23T04:44:06;8.40;;;7.67;;
994;SDS011;486;48.726;8.964;2022-10-23T04:46:37;7.63;;;6.93;;
994;SDS011;486;48.726;8.964;2022-10-23T04:49:08;7.10;;;6.27;;
994;SDS011;486;48.726;8.964;2022-10-23T04:51:57;7.53;;;6.90;;
994;SDS011;486;48.726;8.964;2022-10-23T04:54:45;7.70;;;7.00;;
994;SDS011;486;48.726;8.964;2022-10-23T04:57:40;8.00;;;6.37;;
994;SDS011;486;48.726;8.964;2022-10-23T05:00:11;7.27;;;6.23;;
994;SDS011;486;48.726;8.964;2022-10-23T05:02:47;6.30;;;5.60;;
994;SDS011;486;48.726;8.964;2022-10-23T05:05:21;6.70;;;6.00;;
994;SDS011;486;48.726;8.964;2022-10-23T05:08:16;9.23;;;6.40;;
994;SDS011;486;48.726;8.964;2022-10-23T05:11:21;6.37;;;5.87;;
994;SDS011;486;48.726;8.964;2022-10-23T05:13:50;7.27;;;6.67;;
994;SDS011;486;48.726;8.964;2022-10-23T05:16:23;7.27;;;6.63;;
994;SDS011;486;48.726;8.964;2022-10-23T05:19:02;6.47;;;5.97;;
994;SDS011;486;48.726;8.964;2022-10-23T05:21:35;9.03;;;7.60;;
994;SDS011;486;48.726;8.964;2022-10-23T05:24:06;8.23;;;7.20;;
994;SDS011;486;48.726;8.964;2022-10-23T05:26:37;7.90;;;7.10;;
994;SDS011;486;48.726;8.964;2022-10-23T05:29:06;7.70;;;6.93;;
994;SDS011;486;48.726;8.964;2022-10-23T05:31:36;7.60;;;6.90;;
994;SDS011;486;48.726;8.964;2022-10-23T05:34:10;7.10;;;6.07;;
994;SDS011;486;48.726;8.964;2022-10-23T05:36:45;10.40;;;7.50;;
994;SDS011;486;48.726;8.964;2022-10-23T05:39:15;7.23;;;6.57;;
994;SDS011;486;48.726;8.964;2022-10-23T05:41:45;8.30;;;7.57;;
994;SDS011;486;48.726;8.964;2022-10-23T05:44:19;8.07;;;7.27;;
994;SDS011;486;48.726;8.964;2022-10-23T05:47:06;7.50;;;6.73;;
994;SDS011;486;48.726;8.964;2022-10-23T05:49:55;8.33;;;6.90;;
994;SDS011;486;48.726;8.964;2022-10-23T05:52:47;8.37;;;7.57;;
994;SDS011;486;48.726;8.964;2022-10-23T05:55:45;7.23;;;6.60;;
994;SDS011;486;48.726;8.964;2022-10-23T05:58:49;8.83;;;7.60;;
994;SDS011;486;48.726;8.964;2022-10-23T06:01:37;8.00;;;6.37;;
994;SDS011;486;48.726;8.964;2022-10-23T06:04:07;8.73;;;7.17;;
994;SDS011;486;48.726;8.964;2022-10-23T06:07:08;7.00;;;6.43;;
994;SDS011;486;48.726;8.964;2022-10-23T06:09:40;7.27;;;6.67;;
994;SDS011;486;48.726;8.964;2022-10-23T06:12:11;9.37;;;6.37;;
994;SDS011;486;48.726;8.964;2022-10-23T06:14:43;7.43;;;6.77;;
994;SDS011;486;48.726;8.964;2022-10-23T06:17:12;7.50;;;6.80;;
994;SDS011;486;48.726;8.964;2022-10-23T06:19:43;8.10;;;6.40;;
994;SDS011;486;48.726;8.964;2022-10-23T06:22:16;7.70;;;7.00;;
994;SDS011;486;48.726;8.964;2022-10-23T06:24:52;6.87;;;6.20;;
994;SDS011;486;48.726;8.964;2022-10-23T06:27:24;7.60;;;6.80;;
994;SDS011;486;48.726;8.964;2022-10-23T06:29:54;8.10;;;7.40;;
994;SDS011;486;48.726;8.964;2022-10-23T06:32:23;7.03;;;6.23;;
994;SDS011;486;48.726;8.964;2022-10-23T06:35:05;6.50;;;5.87;;
994;SDS011;486;48.726;8.964;2022-10-23T06:37:36;6.57;;;5.93;;
994;SDS011;486;48.726;8.964;2022-10-23T06:40:18;6.80;;;6.20;;
994;SDS011;486;48.726;8.964;2022-10-23T06:42:55;7.90;;;7.00;;
994;SDS011;486;48.726;8.964;2022-10-23T06:45:30;7.70;;;6.97;;
994;SDS011;486;48.726;8.964;2022-10-23T06:48:20;6.97;;;6.03;;
994;SDS011;486;48.726;8.964;2022-10-23T06:51:03;6.57;;;6.07;;
994;SDS011;486;48.726;8.964;2022-10-23T06:53:40;7.10;;;6.50;;
994;SDS011;486;48.726;8.964;2022-10-23T06:56:35;6.80;;;6.10;;
994;SDS011;486;48.726;8.964;2022-10-23T06:59:06;7.20;;;6.60;;
994;SDS011;486;48.726;8.964;2022-10-23T07:01:36;8.93;;;7.00;;
994;SDS011;486;48.726;8.964;2022-10-23T07:04:06;7.60;;;6.90;;
994;SDS011;486;48.726;8.964;2022-10-23T07:06:38;6.27;;;5.67;;
994;SDS011;486;48.726;8.964;2022-10-23T07:09:08;6.10;;;5.50;;
994;SDS011;486;48.726;8.964;2022-10-23T07:11:52;8.97;;;6.57;;
994;SDS011;486;48.726;8.964;2022-10-23T07:14:32;6.47;;;5.87;;
994;SDS011;486;48.726;8.964;2022-10-23T07:17:02;6.17;;;5.67;;
994;SDS011;486;48.726;8.964;2022-10-23T07:19:31;6.40;;;5.80;;
994;SDS011;486;48.726;8.964;2022-10-23T07:22:08;5.53;;;4.93;;
994;SDS011;486;48.726;8.964;2022-10-23T07:24:42;6.07;;;5.60;;
994;SDS011;486;48.726;8.964;2022-10-23T07:27:23;6.47;;;5.87;;
994;SDS011;486;48.726;8.964;2022-10-23T07:29:55;5.50;;;4.90;;
994;SDS011;486;48.726;8.964;2022-10-23T07:32:28;5.90;;;5.40;;
994;SDS011;486;48.726;8.964;2022-10-23T07:35:16;6.33;;;5.77;;
994;SDS011;486;48.726;8.964;2022-10-23T07:38:15;5.90;;;5.27;;
994;SDS011;486;48.726;8.964;2022-10-23T07:40:50;5.87;;;5.27;;
994;SDS011;486;48.726;8.964;2022-10-23T07:43:22;5.00;;;4.60;;
994;SDS011;486;48.726;8.964;2022-10-23T07:45:51;5.33;;;4.67;;
994;SDS011;486;48.726;8.964;2022-10-23T07:48:26;5.17;;;4.30;;
994;SDS011;486;48.726;8.964;2022-10-23T07:50:57;4.70;;;4.30;;
994;SDS011;486;48.726;8.964;2022-10-23T07:53:34;4.60;;;4.20;;
994;SDS011;486;48.726;8.964;2022-10-23T07:56:13;4.50;;;3.77;;
994;SDS011;486;48.726;8.964;2022-10-23T07:59:04;4.73;;;4.17;;
994;SDS011;486;48.726;8.964;2022-10-23T08:01:35;4.13;;;3.83;;
994;SDS011;486;48.726;8.964;2022-10-23T08:04:06;3.80;;;3.50;;
994;SDS011;486;48.726;8.964;2022-10-23T08:06:46;3.43;;;3.13;;
994;SDS011;486;48.726;8.964;2022-10-23T08:09:16;4.33;;;3.93;;
994;SDS011;486;48.726;8.964;2022-10-23T08:11:45;3.40;;;3.10;;
994;SDS011;486;48.726;8.964;2022-10-23T08:14:20;3.13;;;2.93;;
994;SDS011;486;48.726;8.964;2022-10-23T08:16:49;3.60;;;3.33;;
994;SDS011;486;48.726;8.964;2022-10-23T08:19:18;2.93;;;2.73;;
994;SDS011;486;48.726;8.964;2022-10-23T08:21:50;3.63;;;2.70;;
994;SDS011;486;48.726;8.964;2022-10-23T08:24:21;2.93;;;2.73;;
994;SDS011;486;48.726;8.964;2022-10-23T08:26:51;3.50;;;3.20;;
994;SDS011;486;48.726;8.964;2022-10-23T08:29:25;2.53;;;2.40;;
994;SDS011;486;48.726;8.964;2022-10-23T08:31:53;3.33;;;3.00;;
994;SDS011;486;48.726;8.964;2022-10-23T08:34:31;4.10;;;3.70;;
994;SDS011;486;48.726;8.964;2022-10-23T08:37:02;3.27;;;3.07;;
994;SDS011;486;48.726;8.964;2022-10-23T08:39:32;2.73;;;2.53;;
994;SDS011;486;48.726;8.964;2022-10-23T08:42:16;3.13;;;2.80;;
994;SDS011;486;48.726;8.964;2022-10-23T08:44:56;2.93;;;2.73;;
994;SDS011;486;48.726;8.964;2022-10-23T08:47:37;3.07;;;2.87;;
994;SDS011;486;48.726;8.964;2022-10-23T08:50:33;3.03;;;2.83;;
994;SDS011;486;48.726;8.964;2022-10-23T08:53:10;4.70;;;3.57;;
994;SDS011;486;48.726;8.964;2022-10-23T08:55:46;3.17;;;2.97;;
994;SDS011;486;48.726;8.964;2022-10-23T08:58:24;2.60;;;2.40;;
994;SDS011;486;48.726;8.964;2022-10-23T09:01:09;3.33;;;3.03;;
994;SDS011;486;48.726;8.964;2022-10-23T09:03:58;2.70;;;2.47;;
994;SDS011;486;48.726;8.964;2022-10-23T09:06:30;3.10;;;2.80;;
994;SDS011;486;48.726;8.964;2022-10-23T09:09:16;2.80;;;2.60;;
994;SDS011;486;48.726;8.964;2022-10-23T09:12:00;2.63;;;2.53;;
994;SDS011;486;48.726;8.964;2022-10-23T09:14:39;2.20;;;2.10;;
994;SDS011;486;48.726;8.964;2022-10-23T09:17:24;3.20;;;2.63;;
994;SDS011;486;48.726;8.964;2022-10-23T09:19:58;3.17;;;2.97;;
994;SDS011;486;48.726;8.964;2022-10-23T09:22:34;2.67;;;2.57;;
994;SDS011;486;48.726;8.964;2022-10-23T09:25:07;2.13;;;2.03;;
994;SDS011;486;48.726;8.964;2022-10-23T09:27:37;2.17;;;2.00;;
994;SDS011;486;48.726;8.964;2022-10-23T09:30:23;2.80;;;2.60;;
994;SDS011;486;48.726;8.964;2022-10-23T09:32:58;2.30;;;2.10;;
994;SDS011;486;48.726;8.964;2022-10-23T09:35:29;3.00;;;2.80;;
994;SDS011;486;48.726;8.964;2022-10-23T09:37:58;2.17;;;2.07;;
994;SDS011;486;48.726;8.964;2022-10-23T09:40:29;2.90;;;2.10;;
994;SDS011;486;48.726;8.964;2022-10-23T09:43:11;2.57;;;2.37;;
994;SDS011;486;48.726;8.964;2022-10-23T09:45:43;2.57;;;2.47;;
994;SDS011;486;48.726;8.964;2022-10-23T09:48:26;2.90;;;2.60;;
994;SDS011;486;48.726;8.964;2022-10-23T09:50:56;1.90;;;1.80;;
994;SDS011;486;48.726;8.964;2022-10-23T09:53:30;1.60;;;1.50;;
994;SDS011;486;48.726;8.964;2022-10-23T09:56:02;1.50;;;1.40;;
994;SDS011;486;48.726;8.964;2022-10-23T09:58:38;2.03;;;1.93;;
994;SDS011;486;48.726;8.964;2022-10-23T10:01:23;1.50;;;1.40;;
994;SDS011;486;48.726;8.964;2022-10-23T10:04:03;1.50;;;1.40;;
994;SDS011;486;48.726;8.964;2022-10-23T10:06:33;2.03;;;1.60;;
994;SDS011;486;48.726;8.964;2022-10-23T10:09:04;1.77;;;1.67;;
994;SDS011;486;48.726;8.964;2022-10-23T10:11:40;1.90;;;1.80;;
994;SDS011;486;48.726;8.964;2022-10-23T10:14:31;1.43;;;1.37;;
994;SDS011;486;48.726;8.964;2022-10-23T10:17:14;2.00;;;1.90;;
994;SDS011;486;48.726;8.964;2022-10-23T10:20:09;1.50;;;1.40;;
994;SDS011;486;48.726;8.964;2022-10-23T10:23:05;1.70;;;1.60;;
994;SDS011;486;48.726;8.964;2022-10-23T10:25:43;2.50;;;1.67;;
994;SDS011;486;48.726;8.964;2022-10-23T10:28:26;1.87;;;1.77;;
994;SDS011;486;48.726;8.964;2022-10-23T10:31:09;1.60;;;1.50;;
994;SDS011;486;48.726;8.964;2022-10-23T10:33:48;1.87;;;1.77;;
994;SDS011;486;48.726;8.964;2022-10-23T10:36:33;1.70;;;1.60;;
994;SDS011;486;48.726;8.964;2022-10-23T10:39:18;2.27;;;2.17;;
994;SDS011;486;48.726;8.964;2022-10-23T10:42:06;2.20;;;2.07;;
994;SDS011;486;48.726;8.964;2022-10-23T10:44:58;2.27;;;2.07;;
994;SDS011;486;48.726;8.964;2022-10-23T10:47:43;1.53;;;1.43;;
994;SDS011;486;48.726;8.964;2022-10-23T10:50:51;1.50;;;1.40;;
994;SDS011;486;48.726;8.964;2022-10-23T10:53:54;1.30;;;1.30;;
994;SDS011;486;48.726;8.964;2022-10-23T10:56:39;1.50;;;1.40;;
994;SDS011;486;48.726;8.964;2022-10-23T10:59:12;1.73;;;1.63;;
994;SDS011;486;48.726;8.964;2022-10-23T11:01:49;0.93;;;0.93;;
994;SDS011;486;48.726;8.964;2022-10-23T11:04:27;2.00;;;1.30;;
994;SDS011;486;48.726;8.964;2022-10-23T11:07:04;1.40;;;1.30;;
994;SDS011;486;48.726;8.964;2022-10-23T11:09:41;1.40;;;1.30;;
994;SDS011;486;48.726;8.964;2022-10-23T11:12:13;1.40;;;1.30;;
994;SDS011;486;48.726;8.964;2022-10-23T11:14:47;1.50;;;1.30;;
994;SDS011;486;48.726;8.964;2022-10-23T11:17:20;1.20;;;1.20;;
994;SDS011;486;48.726;8.964;2022-10-23T11:19:55;1.47;;;1.37;;
994;SDS011;486;48.726;8.964;2022-10-23T11:22:31;1.50;;;1.40;;
994;SDS011;486;48.726;8.964;2022-10-23T11:28:14;1.70;;;1.60;;
994;SDS011;486;48.726;8.964;2022-10-23T11:30:57;2.00;;;1.90;;
994;SDS011;486;48.726;8.964;2022-10-23T11:36:55;1.20;;;1.20;;
994;SDS011;486;48.726;8.964;2022-10-23T11:39:28;1.40;;;1.30;;
994;SDS011;486;48.726;8.964;2022-10-23T11:42:14;1.40;;;1.30;;
994;SDS011;486;48.726;8.964;2022-10-23T11:44:57;1.60;;;1.50;;
994;SDS011;486;48.726;8.964;2022-10-23T11:47:31;1.60;;;1.50;;
994;SDS011;486;48.726;8.964;2022-10-23T11:50:15;1.67;;;1.30;;
994;SDS011;486;48.726;8.964;2022-10-23T11:52:58;1.50;;;1.40;;
994;SDS011;486;48.726;8.964;2022-10-23T11:55:35;1.27;;;1.17;;
994;SDS011;486;48.726;8.964;2022-10-23T11:58:22;1.20;;;1.20;;
994;SDS011;486;48.726;8.964;2022-10-23T12:01:00;1.30;;;1.30;;
994;SDS011;486;48.726;8.964;2022-10-23T12:03:37;1.00;;;1.00;;
994;SDS011;486;48.726;8.964;2022-10-23T12:06:17;1.00;;;1.00;;
994;SDS011;486;48.726;8.964;2022-10-23T12:08:52;1.23;;;1.03;;
994;SDS011;486;48.726;8.964;2022-10-23T12:11:27;1.50;;;1.40;;
994;SDS011;486;48.726;8.964;2022-10-23T12:14:29;1.30;;;1.30;;
994;SDS011;486;48.726;8.964;2022-10-23T12:17:01;1.37;;;1.27;;
994;SDS011;486;48.726;8.964;2022-10-23T12:19:53;1.93;;;1.20;;
994;SDS011;486;48.726;8.964;2022-10-23T12:22:31;1.43;;;1.40;;
994;SDS011;486;48.726;8.964;2022-10-23T12:25:10;1.63;;;1.53;;
994;SDS011;486;48.726;8.964;2022-10-23T12:27:45;2.00;;;1.37;;
994;SDS011;486;48.726;8.964;2022-10-23T12:30:23;1.47;;;1.37;;
994;SDS011;486;48.726;8.964;2022-10-23T12:33:06;1.70;;;1.60;;
994;SDS011;486;48.726;8.964;2022-10-23T12:35:47;1.53;;;1.50;;
994;SDS011;486;48.726;8.964;2022-10-23T12:38:43;1.53;;;1.33;;
994;SDS011;486;48.726;8.964;2022-10-23T12:41:14;1.70;;;1.60;;
994;SDS011;486;48.726;8.964;2022-10-23T12:43:53;1.97;;;1.60;;
994;SDS011;486;48.726;8.964;2022-10-23T12:46:29;1.30;;;1.30;;
994;SDS011;486;48.726;8.964;2022-10-23T12:49:10;1.43;;;1.37;;
994;SDS011;486;48.726;8.964;2022-10-23T12:51:42;2.10;;;1.90;;
994;SDS011;486;48.726;8.964;2022-10-23T12:54:13;1.87;;;1.77;;
994;SDS011;486;48.726;8.964;2022-10-23T12:56:45;2.20;;;2.10;;
994;SDS011;486;48.726;8.964;2022-10-23T12:59:15;2.90;;;2.80;;
994;SDS011;486;48.726;8.964;2022-10-23T13:01:49;2.90;;;2.80;;
994;SDS011;486;48.726;8.964;2022-10-23T13:04:28;3.53;;;3.43;;
994;SDS011;486;48.726;8.964;2022-10-23T13:07:00;4.07;;;3.97;;
994;SDS011;486;48.726;8.964;2022-10-23T13:09:32;3.80;;;3.70;;
994;SDS011;486;48.726;8.964;2022-10-23T13:12:15;4.10;;;4.00;;
994;SDS011;486;48.726;8.964;2022-10-23T13:14:55;4.20;;;4.10;;
994;SDS011;486;48.726;8.964;2022-10-23T13:17:37;4.70;;;4.60;;
994;SDS011;486;48.726;8.964;2022-10-23T13:20:19;4.50;;;4.40;;
994;SDS011;486;48.726;8.964;2022-10-23T13:22:55;5.00;;;4.77;;
994;SDS011;486;48.726;8.964;2022-10-23T13:25:29;5.27;;;5.10;;
994;SDS011;486;48.726;8.964;2022-10-23T13:28:04;5.50;;;5.30;;
994;SDS011;486;48.726;8.964;2022-10-23T13:30:45;5.70;;;5.60;;
994;SDS011;486;48.726;8.964;2022-10-23T13:34:02;5.30;;;5.20;;
994;SDS011;486;48.726;8.964;2022-10-23T13:36:49;6.10;;;5.90;;
994;SDS011;486;48.726;8.964;2022-10-23T13:39:28;5.80;;;5.60;;
994;SDS011;486;48.726;8.964;2022-10-23T13:42:01;5.23;;;5.13;;
994;SDS011;486;48.726;8.964;2022-10-23T13:44:38;5.60;;;5.47;;
994;SDS011;486;48.726;8.964;2022-10-23T13:47:10;5.07;;;4.77;;
994;SDS011;486;48.726;8.964;2022-10-23T13:49:43;4.77;;;4.57;;
994;SDS011;486;48.726;8.964;2022-10-23T13:52:12;4.43;;;4.33;;
994;SDS011;486;48.726;8.964;2022-10-23T13:54:47;3.70;;;3.60;;
994;SDS011;486;48.726;8.964;2022-10-23T13:57:16;3.30;;;3.20;;
994;SDS011;486;48.726;8.964;2022-10-23T13:59:45;3.83;;;3.67;;
994;SDS011;486;48.726;8.964;2022-10-23T14:02:17;3.20;;;3.10;;
994;SDS011;486;48.726;8.964;2022-10-23T14:04:51;2.67;;;2.57;;
994;SDS011;486;48.726;8.964;2022-10-23T14:07:21;2.80;;;2.70;;
994;SDS011;486;48.726;8.964;2022-10-23T14:09:49;2.40;;;2.30;;
994;SDS011;486;48.726;8.964;2022-10-23T14:12:18;2.60;;;2.50;;
994;SDS011;486;48.726;8.964;2022-10-23T14:14:49;2.70;;;2.60;;
994;SDS011;486;48.726;8.964;2022-10-23T14:17:18;2.40;;;2.30;;
994;SDS011;486;48.726;8.964;2022-10-23T14:19:48;2.40;;;2.30;;
994;SDS011;486;48.726;8.964;2022-10-23T14:22:19;2.87;;;2.13;;
994;SDS011;486;48.726;8.964;2022-10-23T14:24:48;2.30;;;2.20;;
994;SDS011;486;48.726;8.964;2022-10-23T14:27:18;2.57;;;2.37;;
994;SDS011;486;48.726;8.964;2022-10-23T14:29:47;2.83;;;2.63;;
994;SDS011;486;48.726;8.964;2022-10-23T14:32:16;2.70;;;2.50;;
994;SDS011;486;48.726;8.964;2022-10-23T14:34:47;2.67;;;2.47;;
994;SDS011;486;48.726;8.964;2022-10-23T14:37:22;1.97;;;1.87;;
994;SDS011;486;48.726;8.964;2022-10-23T14:39:51;2.17;;;2.07;;
994;SDS011;486;48.726;8.964;2022-10-23T14:42:20;2.30;;;2.10;;
994;SDS011;486;48.726;8.964;2022-10-23T14:44:49;3.37;;;2.30;;
994;SDS011;486;48.726;8.964;2022-10-23T14:47:19;2.40;;;2.30;;
994;SDS011;486;48.726;8.964;2022-10-23T14:49:49;2.50;;;2.40;;
994;SDS011;486;48.726;8.964;2022-10-23T14:52:22;2.50;;;2.40;;
994;SDS011;486;48.726;8.964;2022-10-23T14:54:51;2.13;;;2.00;;
994;SDS011;486;48.726;8.964;2022-10-23T14:57:21;3.50;;;3.20;;
994;SDS011;486;48.726;8.964;2022-10-23T14:59:50;2.40;;;2.20;;
994;SDS011;486;48.726;8.964;2022-10-23T15:02:19;4.60;;;2.77;;
994;SDS011;486;48.726;8.964;2022-10-23T15:04:48;2.10;;;2.00;;
994;SDS011;486;48.726;8.964;2022-10-23T15:07:19;2.93;;;2.73;;
994;SDS011;486;48.726;8.964;2022-10-23T15:09:48;2.90;;;2.60;;
994;SDS011;486;48.726;8.964;2022-10-23T15:12:17;2.03;;;1.90;;
994;SDS011;486;48.726;8.964;2022-10-23T15:14:46;3.80;;;2.40;;
994;SDS011;486;48.726;8.964;2022-10-23T15:17:15;3.03;;;2.83;;
994;SDS011;486;48.726;8.964;2022-10-23T15:19:44;3.67;;;3.47;;
994;SDS011;486;48.726;8.964;2022-10-23T15:22:13;3.47;;;2.77;;
994;SDS011;486;48.726;8.964;2022-10-23T15:24:46;4.30;;;4.00;;
994;SDS011;486;48.726;8.964;2022-10-23T15:27:16;3.93;;;3.63;;
994;SDS011;486;48.726;8.964;2022-10-23T15:29:45;2.90;;;2.70;;
994;SDS011;486;48.726;8.964;2022-10-23T15:32:16;3.23;;;3.03;;
994;SDS011;486;48.726;8.964;2022-10-23T15:34:45;3.10;;;2.90;;
994;SDS011;486;48.726;8.964;2022-10-23T15:37:16;2.87;;;2.63;;
994;SDS011;486;48.726;8.964;2022-10-23T15:39:47;2.70;;;2.60;;
994;SDS011;486;48.726;8.964;2022-10-23T15:42:16;3.00;;;2.80;;
994;SDS011;486;48.726;8.964;2022-10-23T15:44:45;2.67;;;2.43;;
994;SDS011;486;48.726;8.964;2022-10-23T15:47:14;3.20;;;2.90;;
994;SDS011;486;48.726;8.964;2022-10-23T15:49:44;3.43;;;2.53;;
994;SDS011;486;48.726;8.964;2022-10-23T15:52:13;7.20;;;6.50;;
994;SDS011;486;48.726;8.964;2022-10-23T15:54:41;7.23;;;6.57;;
994;SDS011;486;48.726;8.964;2022-10-23T15:57:13;6.50;;;5.77;;
994;SDS011;486;48.726;8.964;2022-10-23T15:59:42;5.00;;;4.60;;
994;SDS011;486;48.726;8.964;2022-10-23T16:04:54;7.50;;;6.80;;
994;SDS011;486;48.726;8.964;2022-10-23T16:07:23;4.83;;;4.10;;
994;SDS011;486;48.726;8.964;2022-10-23T16:09:52;3.67;;;3.13;;
994;SDS011;486;48.726;8.964;2022-10-23T16:12:24;3.63;;;3.33;;
994;SDS011;486;48.726;8.964;2022-10-23T16:14:53;3.60;;;3.30;;
994;SDS011;486;48.726;8.964;2022-10-23T16:17:22;4.03;;;3.73;;
994;SDS011;486;48.726;8.964;2022-10-23T16:19:51;5.00;;;4.60;;
994;SDS011;486;48.726;8.964;2022-10-23T16:22:20;5.30;;;4.80;;
994;SDS011;486;48.726;8.964;2022-10-23T16:24:49;6.90;;;5.70;;
994;SDS011;486;48.726;8.964;2022-10-23T16:27:18;10.53;;;8.20;;
994;SDS011;486;48.726;8.964;2022-10-23T16:29:49;14.10;;;8.57;;
994;SDS011;486;48.726;8.964;2022-10-23T16:32:19;6.37;;;4.80;;
994;SDS011;486;48.726;8.964;2022-10-23T16:34:47;6.23;;;4.10;;
994;SDS011;486;48.726;8.964;2022-10-23T16:37:18;4.30;;;3.90;;
994;SDS011;486;48.726;8.964;2022-10-23T16:39:52;6.13;;;4.53;;
994;SDS011;486;48.726;8.964;2022-10-23T16:42:44;5.33;;;4.13;;
994;SDS011;486;48.726;8.964;2022-10-23T16:45:44;4.30;;;3.10;;
994;SDS011;486;48.726;8.964;2022-10-23T16:48:13;4.03;;;3.50;;
994;SDS011;486;48.726;8.964;2022-10-23T16:50:42;5.87;;;3.40;;
994;SDS011;486;48.726;8.964;2022-10-23T16:53:11;3.93;;;3.63;;
994;SDS011;486;48.726;8.964;2022-10-23T16:55:40;3.90;;;3.60;;